EW2077 Weather Reports


Display with metric or nautical units.
time (UTC)temp
F
wind
direction
speed
MPH
gust
MPH
rain 1hr
in
rain 24hr
in
rain mn
in
humidity
%
barometer
mb
20210620164552 68 184 2.0 5.0 0.00 0.01 0.00 43 1026.8
20210620163031 68 172 1.0 5.0 0.00 0.01 0.00 44 1026.9
20210620161620 67 194 2.0 4.0 0.00 0.01 0.00 44 1027.0
20210620160103 67 194 1.0 4.0 0.00 0.01 0.00 46 1027.3
20210620154609 66 182 1.0 4.0 0.00 0.01 0.00 46 1027.2
20210620153029 66 180 1.0 5.0 0.00 0.01 0.00 46 1027.5
20210620151548 65 199 0.0 4.0 0.00 0.01 0.00 49 1027.6
20210620150027 65 173 2.0 6.0 0.00 0.01 0.00 49 1027.7
20210620144547 65 165 1.0 4.0 0.00 0.01 0.00 50 1027.8
20210620143030 66 167 1.0 4.0 0.00 0.01 0.00 48 1027.7
20210620141517 68 193 1.0 4.0 0.00 0.01 0.00 44 1027.5
20210620140017 68 163 1.0 6.0 0.00 0.01 0.00 40 1027.3
20210620134541 72 228 0.0 2.0 0.00 0.01 0.00 39 1027.2
20210620133014 71 292 0.0 1.0 0.00 0.01 0.00 35 1027.2
20210620131514 70 314 0.0 1.0 0.00 0.01 0.00 35 1027.5
20210620130015 69 331 0.0 3.0 0.00 0.01 0.00 33 1027.6
20210620124505 68 355 0.0 5.0 0.00 0.01 0.00 34 1027.6
20210620123003 67 11 0.0 6.0 0.00 0.01 0.00 36 1027.6
20210620121644 66 5 0.0 5.0 0.00 0.01 0.00 34 1027.5
20210620120131 65 343 0.0 5.0 0.00 0.01 0.00 34 1027.6
20210620114643 64 12 0.0 3.0 0.00 0.01 0.00 34 1027.8
20210620113100 62 355 0.0 2.0 0.00 0.01 0.00 36 1027.6
20210620111551 60 346 0.0 2.0 0.00 0.01 0.00 39 1027.5
20210620110125 59 348 0.0 1.0 0.00 0.01 0.00 42 1027.2
20210620104606 59 344 1.0 5.0 0.00 0.01 0.00 42 1027.0
20210620103054 57 11 1.0 4.0 0.00 0.01 0.00 45 1027.0
20210620101646 53 72 0.0 0.0 0.00 0.01 0.00 55 1027.1
20210620100049 53 73 0.0 0.0 0.00 0.01 0.00 53 1027.1
20210620094535 53 73 0.0 0.0 0.00 0.01 0.00 52 1027.1
20210620093200 54 73 0.0 0.0 0.00 0.01 0.00 53 1027.1
20210620091542 54 73 0.0 0.0 0.00 0.01 0.00 53 1027.1
20210620090136 54 73 0.0 1.0 0.00 0.01 0.00 52 1026.9
20210620084556 54 74 0.0 2.0 0.00 0.01 0.00 55 1027.0
20210620083043 55 192 0.0 1.0 0.00 0.01 0.00 54 1027.0
20210620081528 56 193 0.0 0.0 0.00 0.01 0.00 55 1027.1
20210620080051 56 193 0.0 0.0 0.00 0.01 0.00 53 1027.3
20210620074530 56 193 0.0 0.0 0.00 0.01 0.00 56 1027.0
20210620073137 55 193 0.0 0.0 0.00 0.01 0.00 56 1026.8
20210620071542 55 193 0.0 2.0 0.00 0.01 0.00 55 1026.9
20210620070027 55 355 0.0 0.0 0.00 0.01 0.00 57 1026.6
20210620064518 55 355 0.0 0.0 0.00 0.01 0.00 54 1026.8
20210620063015 55 355 0.0 0.0 0.00 0.01 0.00 57 1026.8
20210620061508 56 355 0.0 0.0 0.00 0.01 0.00 54 1026.8
20210620060001 57 355 0.0 0.0 0.00 0.01 0.00 50 1026.7
20210620054500 58 355 0.0 0.0 0.00 0.01 0.01 50 1026.5
20210620053201 58 355 0.0 0.0 0.00 0.01 0.01 51 1026.6
20210620051707 59 355 0.0 1.0 0.00 0.01 0.01 49 1026.6
20210620050252 60 355 0.0 0.0 0.00 0.01 0.01 51 1026.7
20210620044607 62 355 0.0 0.0 0.00 0.01 0.01 46 1026.5
20210620043208 63 355 0.0 1.0 0.00 0.01 0.01 44 1026.5
20210620041614 62 360 0.0 1.0 0.00 0.01 0.01 44 1026.3
20210620040148 63 360 0.0 4.0 0.00 0.01 0.01 44 1026.4
20210620034629 63 339 0.0 1.0 0.00 0.01 0.01 46 1026.1
20210620033236 65 339 0.0 0.0 0.00 0.01 0.01 44 1026.0
20210620031747 67 339 0.0 0.0 0.00 0.01 0.01 40 1025.8
20210620030129 69 339 0.0 0.0 0.00 0.01 0.01 36 1025.6
20210620024700 69 343 0.0 3.0 0.00 0.01 0.01 36 1025.5
20210620023144 69 340 0.0 4.0 0.00 0.01 0.01 37 1025.8
20210620021639 69 350 0.0 4.0 0.00 0.01 0.01 38 1025.9
20210620020149 70 302 0.0 7.0 0.00 0.01 0.01 37 1025.8
20210620014622 70 13 1.0 11.0 0.00 0.01 0.01 38 1026.3
20210620013200 70 313 1.0 11.0 0.00 0.01 0.01 39 1026.6
20210620011742 67 24 1.0 9.0 0.00 0.01 0.01 43 1026.4
20210620010116 64 311 0.0 1.0 0.00 0.01 0.01 70 1026.2
20210620004634 64 311 0.0 0.0 0.00 0.01 0.01 67 1025.6
20210620003124 65 311 0.0 1.0 0.00 0.01 0.01 64 1025.5
20210620001629 66 311 0.0 0.0 0.00 0.01 0.01 60 1025.5
20210620000116 67 329 0.0 4.0 0.00 0.01 0.01 49 1025.9
20210619233130 63 305 0.0 6.0 0.01 0.01 0.01 59 1027.0
20210619231558 62 25 5.0 18.0 0.01 0.01 0.01 58 1028.3
20210619230113 65 174 3.0 10.0 0.01 0.01 0.01 65 1029.0
20210619224617 70 180 1.0 7.0 0.00 0.00 0.00 51 1027.3
20210619223100 73 197 1.0 4.0 0.00 0.00 0.00 40 1026.7
20210619221559 74 209 1.0 4.0 0.00 0.00 0.00 37 1026.0
20210619220140 75 190 1.0 7.0 0.00 0.00 0.00 39 1025.8
20210619214655 78 169 0.0 5.0 0.00 0.00 0.00 35 1025.8
20210619213143 78 234 0.0 2.0 0.00 0.00 0.00 35 1026.0
20210619211611 78 236 0.0 2.0 0.00 0.00 0.00 35 1026.5
20210619210042 80 272 0.0 1.0 0.00 0.00 0.00 31 1026.7
20210619204534 80 246 0.0 3.0 0.00 0.00 0.00 34 1026.7
20210619203047 79 217 1.0 4.0 0.00 0.00 0.00 39 1026.8
20210619201536 77 182 1.0 3.0 0.00 0.00 0.00 32 1026.8
20210619200113 74 207 1.0 4.0 0.00 0.00 0.00 42 1027.5
20210619194558 70 207 0.0 0.0 0.00 0.00 0.00 49 1027.9
20210619193040 70 207 0.0 3.0 0.00 0.00 0.00 50 1028.0
20210619191532 71 360 0.0 1.0 0.00 0.00 0.00 45 1028.3
20210619190038 74 249 0.0 2.0 0.00 0.00 0.00 41 1028.3
20210619184553 75 247 0.0 2.0 0.00 0.00 0.00 37 1028.1
20210619183029 76 188 0.0 2.0 0.00 0.00 0.00 36 1027.9
20210619181600 79 182 1.0 3.0 0.00 0.00 0.00 29 1027.8
20210619180041 77 186 0.0 5.0 0.00 0.00 0.00 29 1028.0
20210619174524 78 211 0.0 7.0 0.00 0.00 0.00 28 1028.1
20210619173018 78 191 0.0 4.0 0.00 0.00 0.00 28 1028.2
20210619171517 78 94 0.0 6.0 0.00 0.00 0.00 28 1028.3
20210619170027 78 355 2.0 6.0 0.00 0.00 0.00 27 1028.2